sensor_id;sensor_type;location;lat;lon;timestamp;P1;durP1;ratioP1;P2;durP2;ratioP2
13309;SDS011;6723;48.256;16.402;2023-06-14T00:00:58;4.83;;;4.33;;
13309;SDS011;6723;48.256;16.402;2023-06-14T00:03:24;6.83;;;4.83;;
13309;SDS011;6723;48.256;16.402;2023-06-14T00:05:51;5.90;;;4.47;;
13309;SDS011;6723;48.256;16.402;2023-06-14T00:08:16;4.93;;;4.33;;
13309;SDS011;6723;48.256;16.402;2023-06-14T00:10:44;5.47;;;4.30;;
13309;SDS011;6723;48.256;16.402;2023-06-14T00:13:10;7.07;;;4.40;;
13309;SDS011;6723;48.256;16.402;2023-06-14T00:15:36;7.53;;;5.07;;
13309;SDS011;6723;48.256;16.402;2023-06-14T00:18:02;4.83;;;4.30;;
13309;SDS011;6723;48.256;16.402;2023-06-14T00:20:30;4.77;;;4.33;;
13309;SDS011;6723;48.256;16.402;2023-06-14T00:22:58;5.27;;;4.13;;
13309;SDS011;6723;48.256;16.402;2023-06-14T00:25:25;6.23;;;4.37;;
13309;SDS011;6723;48.256;16.402;2023-06-14T00:27:52;5.80;;;4.60;;
13309;SDS011;6723;48.256;16.402;2023-06-14T00:30:19;5.37;;;4.43;;
13309;SDS011;6723;48.256;16.402;2023-06-14T00:32:45;7.20;;;4.77;;
13309;SDS011;6723;48.256;16.402;2023-06-14T00:35:11;5.60;;;4.60;;
13309;SDS011;6723;48.256;16.402;2023-06-14T00:37:37;8.17;;;4.43;;
13309;SDS011;6723;48.256;16.402;2023-06-14T00:40:04;5.80;;;4.50;;
13309;SDS011;6723;48.256;16.402;2023-06-14T00:42:32;5.53;;;4.97;;
13309;SDS011;6723;48.256;16.402;2023-06-14T00:44:57;5.00;;;4.50;;
13309;SDS011;6723;48.256;16.402;2023-06-14T00:47:24;6.93;;;4.60;;
13309;SDS011;6723;48.256;16.402;2023-06-14T00:49:50;5.60;;;4.60;;
13309;SDS011;6723;48.256;16.402;2023-06-14T00:52:16;9.37;;;4.50;;
13309;SDS011;6723;48.256;16.402;2023-06-14T00:54:43;6.70;;;4.60;;
13309;SDS011;6723;48.256;16.402;2023-06-14T00:57:09;6.20;;;4.37;;
13309;SDS011;6723;48.256;16.402;2023-06-14T00:59:38;5.67;;;4.67;;
13309;SDS011;6723;48.256;16.402;2023-06-14T01:02:08;5.73;;;4.80;;
13309;SDS011;6723;48.256;16.402;2023-06-14T01:13:15;7.20;;;4.30;;
13309;SDS011;6723;48.256;16.402;2023-06-14T01:15:48;6.37;;;4.60;;
13309;SDS011;6723;48.256;16.402;2023-06-14T01:18:15;7.87;;;4.50;;
13309;SDS011;6723;48.256;16.402;2023-06-14T01:20:42;5.77;;;5.00;;
13309;SDS011;6723;48.256;16.402;2023-06-14T01:23:16;5.90;;;4.83;;
13309;SDS011;6723;48.256;16.402;2023-06-14T01:25:43;5.40;;;4.27;;
13309;SDS011;6723;48.256;16.402;2023-06-14T01:28:09;7.40;;;4.73;;
13309;SDS011;6723;48.256;16.402;2023-06-14T01:30:40;4.57;;;4.17;;
13309;SDS011;6723;48.256;16.402;2023-06-14T01:33:16;7.10;;;4.63;;
13309;SDS011;6723;48.256;16.402;2023-06-14T01:35:45;6.17;;;4.80;;
13309;SDS011;6723;48.256;16.402;2023-06-14T01:38:13;6.73;;;4.50;;
13309;SDS011;6723;48.256;16.402;2023-06-14T01:40:40;7.03;;;4.60;;
13309;SDS011;6723;48.256;16.402;2023-06-14T01:43:09;7.23;;;5.20;;
13309;SDS011;6723;48.256;16.402;2023-06-14T01:45:38;7.37;;;5.10;;
13309;SDS011;6723;48.256;16.402;2023-06-14T01:48:05;5.87;;;4.90;;
13309;SDS011;6723;48.256;16.402;2023-06-14T01:50:32;6.97;;;4.90;;
13309;SDS011;6723;48.256;16.402;2023-06-14T01:52:58;6.97;;;4.47;;
13309;SDS011;6723;48.256;16.402;2023-06-14T01:55:24;6.40;;;4.60;;
13309;SDS011;6723;48.256;16.402;2023-06-14T01:57:50;8.07;;;4.60;;
13309;SDS011;6723;48.256;16.402;2023-06-14T02:00:17;7.43;;;4.67;;
13309;SDS011;6723;48.256;16.402;2023-06-14T02:02:43;7.27;;;4.60;;
13309;SDS011;6723;48.256;16.402;2023-06-14T02:05:11;6.43;;;4.83;;
13309;SDS011;6723;48.256;16.402;2023-06-14T02:07:37;13.23;;;4.80;;
13309;SDS011;6723;48.256;16.402;2023-06-14T02:10:03;6.07;;;4.53;;
13309;SDS011;6723;48.256;16.402;2023-06-14T02:12:30;5.07;;;4.50;;
13309;SDS011;6723;48.256;16.402;2023-06-14T02:14:55;5.07;;;4.53;;
13309;SDS011;6723;48.256;16.402;2023-06-14T02:17:21;7.00;;;4.57;;
13309;SDS011;6723;48.256;16.402;2023-06-14T02:19:48;5.70;;;4.93;;
13309;SDS011;6723;48.256;16.402;2023-06-14T02:22:14;8.10;;;4.43;;
13309;SDS011;6723;48.256;16.402;2023-06-14T02:24:43;5.23;;;4.47;;
13309;SDS011;6723;48.256;16.402;2023-06-14T02:27:10;8.47;;;4.87;;
13309;SDS011;6723;48.256;16.402;2023-06-14T02:29:36;7.60;;;4.93;;
13309;SDS011;6723;48.256;16.402;2023-06-14T02:32:03;6.27;;;4.50;;
13309;SDS011;6723;48.256;16.402;2023-06-14T02:34:29;5.30;;;4.67;;
13309;SDS011;6723;48.256;16.402;2023-06-14T02:36:55;5.60;;;4.63;;
13309;SDS011;6723;48.256;16.402;2023-06-14T02:39:22;6.37;;;4.87;;
13309;SDS011;6723;48.256;16.402;2023-06-14T02:41:51;7.53;;;4.67;;
13309;SDS011;6723;48.256;16.402;2023-06-14T02:44:17;10.50;;;4.47;;
13309;SDS011;6723;48.256;16.402;2023-06-14T02:46:44;6.90;;;4.53;;
13309;SDS011;6723;48.256;16.402;2023-06-14T02:49:13;5.90;;;4.47;;
13309;SDS011;6723;48.256;16.402;2023-06-14T02:51:39;6.77;;;4.80;;
13309;SDS011;6723;48.256;16.402;2023-06-14T02:54:05;5.33;;;4.37;;
13309;SDS011;6723;48.256;16.402;2023-06-14T02:56:31;6.77;;;4.80;;
13309;SDS011;6723;48.256;16.402;2023-06-14T02:58:56;5.00;;;4.40;;
13309;SDS011;6723;48.256;16.402;2023-06-14T03:01:24;7.50;;;4.73;;
13309;SDS011;6723;48.256;16.402;2023-06-14T03:03:59;6.37;;;4.97;;
13309;SDS011;6723;48.256;16.402;2023-06-14T03:06:27;5.27;;;4.60;;
13309;SDS011;6723;48.256;16.402;2023-06-14T03:08:55;5.67;;;4.47;;
13309;SDS011;6723;48.256;16.402;2023-06-14T03:11:26;5.03;;;4.53;;
13309;SDS011;6723;48.256;16.402;2023-06-14T03:13:52;5.53;;;4.30;;
13309;SDS011;6723;48.256;16.402;2023-06-14T03:16:18;6.10;;;4.77;;
13309;SDS011;6723;48.256;16.402;2023-06-14T03:18:47;6.07;;;4.83;;
13309;SDS011;6723;48.256;16.402;2023-06-14T03:21:17;7.27;;;4.80;;
13309;SDS011;6723;48.256;16.402;2023-06-14T03:23:43;7.10;;;5.60;;
13309;SDS011;6723;48.256;16.402;2023-06-14T03:26:10;5.90;;;5.30;;
13309;SDS011;6723;48.256;16.402;2023-06-14T03:28:39;8.30;;;4.97;;
13309;SDS011;6723;48.256;16.402;2023-06-14T03:31:05;7.20;;;5.00;;
13309;SDS011;6723;48.256;16.402;2023-06-14T03:33:32;7.60;;;5.20;;
13309;SDS011;6723;48.256;16.402;2023-06-14T03:35:57;6.03;;;4.93;;
13309;SDS011;6723;48.256;16.402;2023-06-14T03:40:53;9.37;;;4.97;;
13309;SDS011;6723;48.256;16.402;2023-06-14T03:43:19;5.30;;;4.80;;
13309;SDS011;6723;48.256;16.402;2023-06-14T03:45:44;6.40;;;4.80;;
13309;SDS011;6723;48.256;16.402;2023-06-14T03:48:10;7.30;;;4.87;;
13309;SDS011;6723;48.256;16.402;2023-06-14T03:50:36;5.53;;;4.70;;
13309;SDS011;6723;48.256;16.402;2023-06-14T03:53:05;5.20;;;4.60;;
13309;SDS011;6723;48.256;16.402;2023-06-14T03:55:32;5.53;;;5.00;;
13309;SDS011;6723;48.256;16.402;2023-06-14T03:57:58;6.47;;;5.37;;
13309;SDS011;6723;48.256;16.402;2023-06-14T04:00:24;11.30;;;5.73;;
13309;SDS011;6723;48.256;16.402;2023-06-14T04:02:51;11.00;;;5.70;;
13309;SDS011;6723;48.256;16.402;2023-06-14T04:05:17;7.30;;;6.13;;
13309;SDS011;6723;48.256;16.402;2023-06-14T04:07:44;7.20;;;5.27;;
13309;SDS011;6723;48.256;16.402;2023-06-14T04:10:11;4.70;;;4.20;;
13309;SDS011;6723;48.256;16.402;2023-06-14T04:12:38;4.90;;;4.47;;
13309;SDS011;6723;48.256;16.402;2023-06-14T04:15:05;5.33;;;4.70;;
13309;SDS011;6723;48.256;16.402;2023-06-14T04:17:33;6.33;;;4.60;;
13309;SDS011;6723;48.256;16.402;2023-06-14T04:19:59;7.63;;;4.77;;
13309;SDS011;6723;48.256;16.402;2023-06-14T04:22:26;4.70;;;4.30;;
13309;SDS011;6723;48.256;16.402;2023-06-14T04:24:55;5.60;;;4.20;;
13309;SDS011;6723;48.256;16.402;2023-06-14T04:27:22;6.53;;;4.60;;
13309;SDS011;6723;48.256;16.402;2023-06-14T04:29:53;5.70;;;4.17;;
13309;SDS011;6723;48.256;16.402;2023-06-14T04:32:28;9.07;;;4.70;;
13309;SDS011;6723;48.256;16.402;2023-06-14T04:35:03;5.63;;;4.33;;
13309;SDS011;6723;48.256;16.402;2023-06-14T04:37:33;6.43;;;4.80;;
13309;SDS011;6723;48.256;16.402;2023-06-14T04:39:59;6.13;;;4.60;;
13309;SDS011;6723;48.256;16.402;2023-06-14T04:42:25;7.87;;;4.60;;
13309;SDS011;6723;48.256;16.402;2023-06-14T04:44:56;5.83;;;4.33;;
13309;SDS011;6723;48.256;16.402;2023-06-14T04:47:22;9.50;;;4.60;;
13309;SDS011;6723;48.256;16.402;2023-06-14T04:49:55;7.87;;;4.83;;
13309;SDS011;6723;48.256;16.402;2023-06-14T04:52:25;7.10;;;4.80;;
13309;SDS011;6723;48.256;16.402;2023-06-14T04:54:51;5.70;;;4.97;;
13309;SDS011;6723;48.256;16.402;2023-06-14T04:57:19;7.80;;;4.53;;
13309;SDS011;6723;48.256;16.402;2023-06-14T05:00:01;5.17;;;4.30;;
13309;SDS011;6723;48.256;16.402;2023-06-14T05:02:36;6.90;;;4.50;;
13309;SDS011;6723;48.256;16.402;2023-06-14T05:10:18;7.93;;;4.50;;
13309;SDS011;6723;48.256;16.402;2023-06-14T05:15:37;6.77;;;4.47;;
13309;SDS011;6723;48.256;16.402;2023-06-14T05:20:34;8.90;;;4.80;;
13309;SDS011;6723;48.256;16.402;2023-06-14T05:23:02;9.23;;;4.90;;
13309;SDS011;6723;48.256;16.402;2023-06-14T05:27:57;7.30;;;4.53;;
13309;SDS011;6723;48.256;16.402;2023-06-14T05:30:23;7.27;;;4.40;;
13309;SDS011;6723;48.256;16.402;2023-06-14T05:32:48;8.03;;;4.20;;
13309;SDS011;6723;48.256;16.402;2023-06-14T05:35:15;10.80;;;4.63;;
13309;SDS011;6723;48.256;16.402;2023-06-14T05:37:40;4.77;;;3.80;;
13309;SDS011;6723;48.256;16.402;2023-06-14T05:40:07;7.73;;;4.53;;
13309;SDS011;6723;48.256;16.402;2023-06-14T05:42:34;10.37;;;4.23;;
13309;SDS011;6723;48.256;16.402;2023-06-14T05:44:59;7.87;;;4.27;;
13309;SDS011;6723;48.256;16.402;2023-06-14T05:47:26;7.57;;;4.20;;
13309;SDS011;6723;48.256;16.402;2023-06-14T05:49:53;7.03;;;4.37;;
13309;SDS011;6723;48.256;16.402;2023-06-14T05:52:20;7.57;;;4.10;;
13309;SDS011;6723;48.256;16.402;2023-06-14T05:54:46;7.17;;;4.20;;
13309;SDS011;6723;48.256;16.402;2023-06-14T05:57:12;8.47;;;4.17;;
13309;SDS011;6723;48.256;16.402;2023-06-14T05:59:41;8.80;;;4.17;;
13309;SDS011;6723;48.256;16.402;2023-06-14T06:02:06;6.03;;;4.17;;
13309;SDS011;6723;48.256;16.402;2023-06-14T06:04:35;5.23;;;3.63;;
13309;SDS011;6723;48.256;16.402;2023-06-14T06:07:01;6.83;;;3.73;;
13309;SDS011;6723;48.256;16.402;2023-06-14T06:09:26;5.73;;;4.20;;
13309;SDS011;6723;48.256;16.402;2023-06-14T06:11:52;5.23;;;3.87;;
13309;SDS011;6723;48.256;16.402;2023-06-14T06:14:18;7.97;;;3.57;;
13309;SDS011;6723;48.256;16.402;2023-06-14T06:16:44;4.73;;;3.80;;
13309;SDS011;6723;48.256;16.402;2023-06-14T06:19:10;6.97;;;4.17;;
13309;SDS011;6723;48.256;16.402;2023-06-14T06:21:36;9.77;;;4.10;;
13309;SDS011;6723;48.256;16.402;2023-06-14T06:24:01;6.33;;;3.83;;
13309;SDS011;6723;48.256;16.402;2023-06-14T06:26:30;8.13;;;3.80;;
13309;SDS011;6723;48.256;16.402;2023-06-14T06:28:57;8.90;;;3.70;;
13309;SDS011;6723;48.256;16.402;2023-06-14T06:31:24;4.87;;;3.53;;
13309;SDS011;6723;48.256;16.402;2023-06-14T06:33:50;8.90;;;5.07;;
13309;SDS011;6723;48.256;16.402;2023-06-14T06:36:17;8.17;;;7.23;;
13309;SDS011;6723;48.256;16.402;2023-06-14T06:38:42;11.13;;;4.83;;
13309;SDS011;6723;48.256;16.402;2023-06-14T06:41:11;5.63;;;3.90;;
13309;SDS011;6723;48.256;16.402;2023-06-14T06:43:37;6.43;;;4.00;;
13309;SDS011;6723;48.256;16.402;2023-06-14T06:46:02;11.23;;;4.30;;
13309;SDS011;6723;48.256;16.402;2023-06-14T06:48:28;7.93;;;3.80;;
13309;SDS011;6723;48.256;16.402;2023-06-14T06:50:54;6.17;;;3.80;;
13309;SDS011;6723;48.256;16.402;2023-06-14T06:53:20;6.23;;;4.07;;
13309;SDS011;6723;48.256;16.402;2023-06-14T06:55:46;6.60;;;3.90;;
13309;SDS011;6723;48.256;16.402;2023-06-14T06:58:12;5.53;;;3.47;;
13309;SDS011;6723;48.256;16.402;2023-06-14T07:00:38;6.43;;;3.57;;
13309;SDS011;6723;48.256;16.402;2023-06-14T07:03:05;5.60;;;4.00;;
13309;SDS011;6723;48.256;16.402;2023-06-14T07:05:31;6.27;;;3.70;;
13309;SDS011;6723;48.256;16.402;2023-06-14T07:07:57;5.03;;;3.40;;
13309;SDS011;6723;48.256;16.402;2023-06-14T07:10:23;3.77;;;3.40;;
13309;SDS011;6723;48.256;16.402;2023-06-14T07:12:49;4.63;;;3.40;;
13309;SDS011;6723;48.256;16.402;2023-06-14T07:15:16;3.30;;;3.00;;
13309;SDS011;6723;48.256;16.402;2023-06-14T07:17:42;3.70;;;3.40;;
13309;SDS011;6723;48.256;16.402;2023-06-14T07:20:08;6.07;;;3.97;;
13309;SDS011;6723;48.256;16.402;2023-06-14T07:22:37;4.37;;;3.30;;
13309;SDS011;6723;48.256;16.402;2023-06-14T07:25:08;4.27;;;3.30;;
13309;SDS011;6723;48.256;16.402;2023-06-14T07:27:41;3.43;;;3.10;;
13309;SDS011;6723;48.256;16.402;2023-06-14T07:30:08;5.53;;;3.00;;
13309;SDS011;6723;48.256;16.402;2023-06-14T07:32:34;3.25;;;2.92;;
13309;SDS011;6723;48.256;16.402;2023-06-14T07:35:00;3.00;;;2.50;;
13309;SDS011;6723;48.256;16.402;2023-06-14T07:37:25;5.15;;;2.75;;
13309;SDS011;6723;48.256;16.402;2023-06-14T07:39:51;3.78;;;2.38;;
13309;SDS011;6723;48.256;16.402;2023-06-14T07:42:17;3.72;;;2.25;;
13309;SDS011;6723;48.256;16.402;2023-06-14T07:44:42;4.05;;;2.33;;
13309;SDS011;6723;48.256;16.402;2023-06-14T07:47:08;5.78;;;1.90;;
13309;SDS011;6723;48.256;16.402;2023-06-14T07:49:34;3.40;;;1.83;;
13309;SDS011;6723;48.256;16.402;2023-06-14T07:52:00;2.75;;;2.00;;
13309;SDS011;6723;48.256;16.402;2023-06-14T07:54:26;3.10;;;1.85;;
13309;SDS011;6723;48.256;16.402;2023-06-14T07:56:52;4.03;;;2.00;;
13309;SDS011;6723;48.256;16.402;2023-06-14T07:59:18;2.33;;;1.73;;
13309;SDS011;6723;48.256;16.402;2023-06-14T08:01:44;3.63;;;1.90;;
13309;SDS011;6723;48.256;16.402;2023-06-14T08:04:12;2.33;;;1.80;;
13309;SDS011;6723;48.256;16.402;2023-06-14T08:06:39;2.42;;;1.55;;
13309;SDS011;6723;48.256;16.402;2023-06-14T08:09:09;8.57;;;2.17;;
13309;SDS011;6723;48.256;16.402;2023-06-14T08:11:36;3.70;;;1.55;;
13309;SDS011;6723;48.256;16.402;2023-06-14T08:14:02;3.28;;;1.80;;
13309;SDS011;6723;48.256;16.402;2023-06-14T08:16:29;5.43;;;1.90;;
13309;SDS011;6723;48.256;16.402;2023-06-14T08:18:55;3.13;;;1.80;;
13309;SDS011;6723;48.256;16.402;2023-06-14T08:21:21;3.72;;;1.80;;
13309;SDS011;6723;48.256;16.402;2023-06-14T08:23:47;1.90;;;1.60;;
13309;SDS011;6723;48.256;16.402;2023-06-14T08:26:12;3.75;;;1.80;;
13309;SDS011;6723;48.256;16.402;2023-06-14T08:28:38;2.70;;;1.70;;
13309;SDS011;6723;48.256;16.402;2023-06-14T08:31:04;4.55;;;1.80;;
13309;SDS011;6723;48.256;16.402;2023-06-14T08:33:30;2.92;;;2.10;;
13309;SDS011;6723;48.256;16.402;2023-06-14T08:35:59;2.22;;;1.80;;
13309;SDS011;6723;48.256;16.402;2023-06-14T08:38:25;4.88;;;1.90;;
13309;SDS011;6723;48.256;16.402;2023-06-14T08:40:56;3.67;;;2.20;;
13309;SDS011;6723;48.256;16.402;2023-06-14T08:43:23;5.20;;;2.00;;
13309;SDS011;6723;48.256;16.402;2023-06-14T08:45:49;2.50;;;2.05;;
13309;SDS011;6723;48.256;16.402;2023-06-14T08:48:22;3.58;;;2.30;;
13309;SDS011;6723;48.256;16.402;2023-06-14T08:50:51;2.78;;;1.65;;
13309;SDS011;6723;48.256;16.402;2023-06-14T08:53:27;5.45;;;1.77;;
13309;SDS011;6723;48.256;16.402;2023-06-14T08:55:57;2.58;;;1.70;;
13309;SDS011;6723;48.256;16.402;2023-06-14T08:58:27;2.50;;;1.80;;
13309;SDS011;6723;48.256;16.402;2023-06-14T09:00:59;2.65;;;1.50;;
13309;SDS011;6723;48.256;16.402;2023-06-14T09:03:29;4.82;;;1.90;;
13309;SDS011;6723;48.256;16.402;2023-06-14T09:05:58;1.77;;;1.50;;
13309;SDS011;6723;48.256;16.402;2023-06-14T09:08:26;4.18;;;1.65;;
13309;SDS011;6723;48.256;16.402;2023-06-14T09:10:55;3.58;;;2.03;;
13309;SDS011;6723;48.256;16.402;2023-06-14T09:13:22;3.65;;;1.80;;
13309;SDS011;6723;48.256;16.402;2023-06-14T09:15:48;3.40;;;1.80;;
13309;SDS011;6723;48.256;16.402;2023-06-14T09:18:13;3.08;;;2.10;;
13309;SDS011;6723;48.256;16.402;2023-06-14T09:20:40;4.93;;;1.63;;
13309;SDS011;6723;48.256;16.402;2023-06-14T09:23:06;2.72;;;1.80;;
13309;SDS011;6723;48.256;16.402;2023-06-14T09:25:36;2.00;;;1.80;;
13309;SDS011;6723;48.256;16.402;2023-06-14T09:28:09;3.67;;;1.55;;
13309;SDS011;6723;48.256;16.402;2023-06-14T09:30:36;2.45;;;1.80;;
13309;SDS011;6723;48.256;16.402;2023-06-14T09:33:03;2.63;;;1.83;;
13309;SDS011;6723;48.256;16.402;2023-06-14T09:35:30;2.67;;;1.80;;
13309;SDS011;6723;48.256;16.402;2023-06-14T09:37:57;1.98;;;1.60;;
13309;SDS011;6723;48.256;16.402;2023-06-14T09:40:23;3.47;;;1.90;;
13309;SDS011;6723;48.256;16.402;2023-06-14T09:42:50;2.13;;;1.80;;
13309;SDS011;6723;48.256;16.402;2023-06-14T09:45:16;3.85;;;1.90;;
13309;SDS011;6723;48.256;16.402;2023-06-14T09:47:48;5.75;;;2.08;;
13309;SDS011;6723;48.256;16.402;2023-06-14T09:50:14;2.78;;;1.90;;
13309;SDS011;6723;48.256;16.402;2023-06-14T09:52:41;2.83;;;1.90;;
13309;SDS011;6723;48.256;16.402;2023-06-14T09:55:13;4.43;;;2.20;;
13309;SDS011;6723;48.256;16.402;2023-06-14T09:57:41;4.20;;;1.80;;
13309;SDS011;6723;48.256;16.402;2023-06-14T10:00:09;4.63;;;1.95;;
13309;SDS011;6723;48.256;16.402;2023-06-14T10:02:38;4.35;;;2.17;;
13309;SDS011;6723;48.256;16.402;2023-06-14T10:05:08;2.83;;;2.00;;
13309;SDS011;6723;48.256;16.402;2023-06-14T10:10:06;2.55;;;1.90;;
13309;SDS011;6723;48.256;16.402;2023-06-14T10:12:32;3.45;;;2.20;;
13309;SDS011;6723;48.256;16.402;2023-06-14T10:14:58;4.55;;;2.30;;
13309;SDS011;6723;48.256;16.402;2023-06-14T10:20:03;6.05;;;2.70;;
13309;SDS011;6723;48.256;16.402;2023-06-14T10:22:51;3.97;;;2.60;;
13309;SDS011;6723;48.256;16.402;2023-06-14T10:25:27;4.05;;;2.70;;
13309;SDS011;6723;48.256;16.402;2023-06-14T10:31:03;3.07;;;2.77;;
13309;SDS011;6723;48.256;16.402;2023-06-14T10:33:34;5.60;;;2.90;;
13309;SDS011;6723;48.256;16.402;2023-06-14T10:36:27;4.93;;;2.80;;
13309;SDS011;6723;48.256;16.402;2023-06-14T10:38:57;3.57;;;2.90;;
13309;SDS011;6723;48.256;16.402;2023-06-14T10:41:38;5.13;;;2.73;;
13309;SDS011;6723;48.256;16.402;2023-06-14T10:46:52;4.43;;;2.70;;
13309;SDS011;6723;48.256;16.402;2023-06-14T10:49:18;3.93;;;2.30;;
13309;SDS011;6723;48.256;16.402;2023-06-14T10:51:45;2.88;;;2.60;;
13309;SDS011;6723;48.256;16.402;2023-06-14T10:54:15;3.97;;;2.42;;
13309;SDS011;6723;48.256;16.402;2023-06-14T10:56:51;4.10;;;2.70;;
13309;SDS011;6723;48.256;16.402;2023-06-14T10:59:19;2.50;;;2.30;;
13309;SDS011;6723;48.256;16.402;2023-06-14T11:02:45;3.28;;;2.42;;
13309;SDS011;6723;48.256;16.402;2023-06-14T11:04:47;5.10;;;2.60;;
13309;SDS011;6723;48.256;16.402;2023-06-14T11:12:19;8.50;;;2.20;;
13309;SDS011;6723;48.256;16.402;2023-06-14T11:14:46;7.18;;;2.90;;
13309;SDS011;6723;48.256;16.402;2023-06-14T11:17:13;3.42;;;2.60;;
13309;SDS011;6723;48.256;16.402;2023-06-14T11:19:39;2.70;;;2.40;;
13309;SDS011;6723;48.256;16.402;2023-06-14T11:22:04;3.25;;;2.70;;
13309;SDS011;6723;48.256;16.402;2023-06-14T11:24:32;2.63;;;2.30;;
13309;SDS011;6723;48.256;16.402;2023-06-14T11:26:58;3.45;;;2.60;;
13309;SDS011;6723;48.256;16.402;2023-06-14T11:29:24;4.00;;;2.60;;
13309;SDS011;6723;48.256;16.402;2023-06-14T11:31:50;4.23;;;2.73;;
13309;SDS011;6723;48.256;16.402;2023-06-14T11:34:16;4.77;;;2.70;;
13309;SDS011;6723;48.256;16.402;2023-06-14T11:36:42;6.33;;;2.53;;
13309;SDS011;6723;48.256;16.402;2023-06-14T11:39:11;4.07;;;2.50;;
13309;SDS011;6723;48.256;16.402;2023-06-14T11:41:37;2.83;;;2.53;;
13309;SDS011;6723;48.256;16.402;2023-06-14T11:44:06;5.03;;;2.40;;
13309;SDS011;6723;48.256;16.402;2023-06-14T11:46:35;4.13;;;2.70;;
13309;SDS011;6723;48.256;16.402;2023-06-14T11:49:04;5.27;;;2.73;;
13309;SDS011;6723;48.256;16.402;2023-06-14T11:51:32;3.33;;;2.90;;
13309;SDS011;6723;48.256;16.402;2023-06-14T11:54:00;4.17;;;2.80;;
13309;SDS011;6723;48.256;16.402;2023-06-14T11:56:28;4.10;;;2.80;;
13309;SDS011;6723;48.256;16.402;2023-06-14T11:58:55;4.17;;;2.50;;
13309;SDS011;6723;48.256;16.402;2023-06-14T12:01:24;6.10;;;2.73;;
13309;SDS011;6723;48.256;16.402;2023-06-14T12:03:52;4.00;;;2.70;;
13309;SDS011;6723;48.256;16.402;2023-06-14T12:06:26;4.37;;;2.37;;
13309;SDS011;6723;48.256;16.402;2023-06-14T12:09:04;4.73;;;2.57;;
13309;SDS011;6723;48.256;16.402;2023-06-14T12:11:32;3.60;;;2.83;;
13309;SDS011;6723;48.256;16.402;2023-06-14T12:13:59;4.80;;;2.70;;
13309;SDS011;6723;48.256;16.402;2023-06-14T12:16:30;4.70;;;2.60;;
13309;SDS011;6723;48.256;16.402;2023-06-14T12:19:00;2.63;;;2.43;;
13309;SDS011;6723;48.256;16.402;2023-06-14T12:21:35;3.53;;;2.50;;
13309;SDS011;6723;48.256;16.402;2023-06-14T12:24:04;7.53;;;2.63;;
13309;SDS011;6723;48.256;16.402;2023-06-14T12:26:31;5.43;;;3.03;;
13309;SDS011;6723;48.256;16.402;2023-06-14T12:28:58;2.90;;;2.43;;
13309;SDS011;6723;48.256;16.402;2023-06-14T12:31:24;5.53;;;2.80;;
13309;SDS011;6723;48.256;16.402;2023-06-14T12:33:51;5.60;;;2.67;;
13309;SDS011;6723;48.256;16.402;2023-06-14T12:36:17;6.80;;;2.67;;
13309;SDS011;6723;48.256;16.402;2023-06-14T12:38:44;3.07;;;2.40;;
13309;SDS011;6723;48.256;16.402;2023-06-14T12:41:11;3.90;;;2.77;;
13309;SDS011;6723;48.256;16.402;2023-06-14T12:43:39;4.90;;;3.20;;
13309;SDS011;6723;48.256;16.402;2023-06-14T12:46:05;6.63;;;2.70;;
13309;SDS011;6723;48.256;16.402;2023-06-14T12:48:31;6.17;;;3.37;;
13309;SDS011;6723;48.256;16.402;2023-06-14T12:50:57;6.60;;;3.10;;
13309;SDS011;6723;48.256;16.402;2023-06-14T12:53:23;5.67;;;3.00;;
13309;SDS011;6723;48.256;16.402;2023-06-14T12:55:49;4.30;;;2.90;;
13309;SDS011;6723;48.256;16.402;2023-06-14T12:58:15;7.57;;;3.17;;
13309;SDS011;6723;48.256;16.402;2023-06-14T13:00:42;3.10;;;2.80;;
13309;SDS011;6723;48.256;16.402;2023-06-14T13:03:09;3.17;;;2.87;;
13309;SDS011;6723;48.256;16.402;2023-06-14T13:05:35;8.00;;;3.03;;
13309;SDS011;6723;48.256;16.402;2023-06-14T13:08:02;11.50;;;2.80;;
13309;SDS011;6723;48.256;16.402;2023-06-14T13:10:28;4.77;;;2.83;;
13309;SDS011;6723;48.256;16.402;2023-06-14T13:12:54;10.57;;;5.57;;
13309;SDS011;6723;48.256;16.402;2023-06-14T13:15:20;9.93;;;4.80;;
13309;SDS011;6723;48.256;16.402;2023-06-14T13:17:45;4.83;;;3.33;;
13309;SDS011;6723;48.256;16.402;2023-06-14T13:20:13;4.97;;;2.90;;
13309;SDS011;6723;48.256;16.402;2023-06-14T13:22:40;3.87;;;2.83;;
13309;SDS011;6723;48.256;16.402;2023-06-14T13:25:06;8.67;;;3.00;;
13309;SDS011;6723;48.256;16.402;2023-06-14T13:27:33;3.73;;;2.90;;
13309;SDS011;6723;48.256;16.402;2023-06-14T13:29:59;11.60;;;3.03;;
13309;SDS011;6723;48.256;16.402;2023-06-14T13:32:24;4.00;;;2.73;;
13309;SDS011;6723;48.256;16.402;2023-06-14T13:34:50;4.77;;;2.97;;
13309;SDS011;6723;48.256;16.402;2023-06-14T13:37:16;3.30;;;2.73;;
13309;SDS011;6723;48.256;16.402;2023-06-14T13:39:42;3.47;;;3.17;;
13309;SDS011;6723;48.256;16.402;2023-06-14T13:42:08;4.17;;;2.80;;
13309;SDS011;6723;48.256;16.402;2023-06-14T13:44:36;4.53;;;2.97;;
13309;SDS011;6723;48.256;16.402;2023-06-14T13:47:02;3.60;;;2.93;;
13309;SDS011;6723;48.256;16.402;2023-06-14T13:49:28;5.37;;;3.13;;
13309;SDS011;6723;48.256;16.402;2023-06-14T13:51:54;4.60;;;2.77;;
13309;SDS011;6723;48.256;16.402;2023-06-14T13:54:20;7.67;;;3.10;;
13309;SDS011;6723;48.256;16.402;2023-06-14T13:56:46;4.70;;;2.80;;
13309;SDS011;6723;48.256;16.402;2023-06-14T13:59:12;7.47;;;2.90;;
13309;SDS011;6723;48.256;16.402;2023-06-14T14:01:38;3.33;;;3.00;;
13309;SDS011;6723;48.256;16.402;2023-06-14T14:04:04;4.43;;;3.33;;
13309;SDS011;6723;48.256;16.402;2023-06-14T14:06:34;4.10;;;3.00;;
13309;SDS011;6723;48.256;16.402;2023-06-14T14:09:00;4.53;;;3.00;;
13309;SDS011;6723;48.256;16.402;2023-06-14T14:11:26;3.30;;;3.00;;
13309;SDS011;6723;48.256;16.402;2023-06-14T14:13:53;4.67;;;3.13;;
13309;SDS011;6723;48.256;16.402;2023-06-14T14:16:19;7.77;;;3.07;;
13309;SDS011;6723;48.256;16.402;2023-06-14T14:18:45;5.73;;;3.17;;
13309;SDS011;6723;48.256;16.402;2023-06-14T14:21:11;3.50;;;3.03;;
13309;SDS011;6723;48.256;16.402;2023-06-14T14:23:38;7.40;;;3.40;;
13309;SDS011;6723;48.256;16.402;2023-06-14T14:26:04;8.73;;;5.17;;
13309;SDS011;6723;48.256;16.402;2023-06-14T14:28:30;7.93;;;6.60;;
13309;SDS011;6723;48.256;16.402;2023-06-14T14:30:58;4.07;;;3.07;;
13309;SDS011;6723;48.256;16.402;2023-06-14T14:33:25;4.73;;;3.23;;
13309;SDS011;6723;48.256;16.402;2023-06-14T14:35:50;6.67;;;3.60;;
13309;SDS011;6723;48.256;16.402;2023-06-14T14:38:16;9.37;;;5.23;;
13309;SDS011;6723;48.256;16.402;2023-06-14T14:40:43;7.93;;;5.10;;
13309;SDS011;6723;48.256;16.402;2023-06-14T14:43:09;8.97;;;4.50;;
13309;SDS011;6723;48.256;16.402;2023-06-14T14:45:35;7.83;;;4.80;;
13309;SDS011;6723;48.256;16.402;2023-06-14T14:48:02;5.73;;;3.73;;
13309;SDS011;6723;48.256;16.402;2023-06-14T14:50:28;9.60;;;5.50;;
13309;SDS011;6723;48.256;16.402;2023-06-14T14:52:54;5.50;;;3.70;;
13309;SDS011;6723;48.256;16.402;2023-06-14T14:55:21;8.10;;;3.70;;
13309;SDS011;6723;48.256;16.402;2023-06-14T14:57:47;5.77;;;3.77;;
13309;SDS011;6723;48.256;16.402;2023-06-14T15:00:13;4.70;;;3.13;;
13309;SDS011;6723;48.256;16.402;2023-06-14T15:02:39;7.17;;;4.77;;
13309;SDS011;6723;48.256;16.402;2023-06-14T15:05:05;6.33;;;3.40;;
13309;SDS011;6723;48.256;16.402;2023-06-14T15:07:31;8.70;;;4.03;;
13309;SDS011;6723;48.256;16.402;2023-06-14T15:10:01;4.67;;;3.30;;
13309;SDS011;6723;48.256;16.402;2023-06-14T15:12:27;6.40;;;3.83;;
13309;SDS011;6723;48.256;16.402;2023-06-14T15:14:52;4.60;;;2.90;;
13309;SDS011;6723;48.256;16.402;2023-06-14T15:17:19;7.17;;;3.83;;
13309;SDS011;6723;48.256;16.402;2023-06-14T15:19:46;5.30;;;2.97;;
13309;SDS011;6723;48.256;16.402;2023-06-14T15:22:13;4.00;;;3.00;;
13309;SDS011;6723;48.256;16.402;2023-06-14T15:24:40;6.00;;;3.00;;
13309;SDS011;6723;48.256;16.402;2023-06-14T15:27:07;4.53;;;3.30;;
13309;SDS011;6723;48.256;16.402;2023-06-14T15:29:34;7.67;;;3.20;;